sensor_id;sensor_type;location;lat;lon;timestamp;pressure;altitude;pressure_sealevel;temperature;humidity
36380;BME280;22411;53.016;18.632;2022-09-13T00:01:47;100564.28;;;10.42;100.00
36380;BME280;22411;53.016;18.632;2022-09-13T00:04:13;100556.50;;;10.42;100.00
36380;BME280;22411;53.016;18.632;2022-09-13T00:06:38;100558.69;;;10.36;100.00
36380;BME280;22411;53.016;18.632;2022-09-13T00:09:04;100552.03;;;10.32;100.00
36380;BME280;22411;53.016;18.632;2022-09-13T00:11:30;100542.50;;;10.32;100.00
36380;BME280;22411;53.016;18.632;2022-09-13T00:13:57;100540.31;;;10.26;100.00
36380;BME280;22411;53.016;18.632;2022-09-13T00:16:25;100541.53;;;10.20;100.00
36380;BME280;22411;53.016;18.632;2022-09-13T00:18:52;100536.47;;;10.19;100.00
36380;BME280;22411;53.016;18.632;2022-09-13T00:21:19;100535.81;;;10.15;100.00
36380;BME280;22411;53.016;18.632;2022-09-13T00:23:48;100538.63;;;10.12;100.00
36380;BME280;22411;53.016;18.632;2022-09-13T00:26:19;100535.50;;;10.07;100.00
36380;BME280;22411;53.016;18.632;2022-09-13T00:28:50;100535.81;;;10.03;100.00
36380;BME280;22411;53.016;18.632;2022-09-13T00:31:16;100533.28;;;10.01;100.00
36380;BME280;22411;53.016;18.632;2022-09-13T00:33:42;100535.16;;;9.99;100.00
36380;BME280;22411;53.016;18.632;2022-09-13T00:36:10;100528.34;;;9.98;100.00
36380;BME280;22411;53.016;18.632;2022-09-13T00:38:38;100526.03;;;9.93;100.00
36380;BME280;22411;53.016;18.632;2022-09-13T00:41:06;100517.63;;;9.90;100.00
36380;BME280;22411;53.016;18.632;2022-09-13T00:43:57;100518.03;;;9.84;100.00
36380;BME280;22411;53.016;18.632;2022-09-13T00:46:26;100520.94;;;9.79;100.00
36380;BME280;22411;53.016;18.632;2022-09-13T00:48:57;100518.75;;;9.73;100.00
36380;BME280;22411;53.016;18.632;2022-09-13T00:51:25;100525.78;;;9.71;100.00
36380;BME280;22411;53.016;18.632;2022-09-13T00:53:53;100525.97;;;9.68;100.00
36380;BME280;22411;53.016;18.632;2022-09-13T00:56:40;100524.72;;;9.61;100.00
36380;BME280;22411;53.016;18.632;2022-09-13T00:59:16;100513.53;;;9.60;100.00
36380;BME280;22411;53.016;18.632;2022-09-13T01:01:47;100514.75;;;9.55;100.00
36380;BME280;22411;53.016;18.632;2022-09-13T01:04:16;100506.47;;;9.50;100.00
36380;BME280;22411;53.016;18.632;2022-09-13T01:06:44;100503.94;;;9.48;100.00
36380;BME280;22411;53.016;18.632;2022-09-13T01:09:11;100502.69;;;9.41;100.00
36380;BME280;22411;53.016;18.632;2022-09-13T01:11:44;100504.84;;;9.34;100.00
36380;BME280;22411;53.016;18.632;2022-09-13T01:14:18;100500.69;;;9.32;100.00
36380;BME280;22411;53.016;18.632;2022-09-13T01:16:46;100495.78;;;9.27;100.00
36380;BME280;22411;53.016;18.632;2022-09-13T01:19:12;100501.25;;;9.23;100.00
36380;BME280;22411;53.016;18.632;2022-09-13T01:30:17;100490.13;;;9.08;100.00
36380;BME280;22411;53.016;18.632;2022-09-13T01:35:26;100481.63;;;9.06;100.00
36380;BME280;22411;53.016;18.632;2022-09-13T01:40:52;100478.41;;;9.02;100.00
36380;BME280;22411;53.016;18.632;2022-09-13T01:43:57;100480.34;;;8.99;100.00
36380;BME280;22411;53.016;18.632;2022-09-13T01:49:46;100481.66;;;8.92;100.00
36380;BME280;22411;53.016;18.632;2022-09-13T01:52:35;100482.56;;;8.90;100.00
36380;BME280;22411;53.016;18.632;2022-09-13T01:55:05;100489.41;;;8.92;100.00
36380;BME280;22411;53.016;18.632;2022-09-13T02:03:29;100483.13;;;8.96;100.00
36380;BME280;22411;53.016;18.632;2022-09-13T02:06:03;100476.19;;;8.96;100.00
36380;BME280;22411;53.016;18.632;2022-09-13T02:08:41;100477.66;;;9.00;100.00
36380;BME280;22411;53.016;18.632;2022-09-13T02:11:10;100469.47;;;8.94;100.00
36380;BME280;22411;53.016;18.632;2022-09-13T02:13:42;100470.28;;;8.94;100.00
36380;BME280;22411;53.016;18.632;2022-09-13T02:16:32;100473.25;;;8.88;100.00
36380;BME280;22411;53.016;18.632;2022-09-13T02:19:05;100456.94;;;8.87;100.00
36380;BME280;22411;53.016;18.632;2022-09-13T02:21:37;100450.00;;;8.88;100.00
36380;BME280;22411;53.016;18.632;2022-09-13T02:24:12;100451.09;;;8.84;100.00
36380;BME280;22411;53.016;18.632;2022-09-13T02:26:41;100454.63;;;8.83;100.00
36380;BME280;22411;53.016;18.632;2022-09-13T02:29:13;100447.81;;;8.82;100.00
36380;BME280;22411;53.016;18.632;2022-09-13T02:31:54;100446.97;;;8.81;100.00
36380;BME280;22411;53.016;18.632;2022-09-13T02:34:22;100445.28;;;8.80;100.00
36380;BME280;22411;53.016;18.632;2022-09-13T02:36:52;100449.72;;;8.78;100.00
36380;BME280;22411;53.016;18.632;2022-09-13T02:39:23;100440.22;;;8.79;100.00
36380;BME280;22411;53.016;18.632;2022-09-13T02:42:16;100439.41;;;8.78;100.00
36380;BME280;22411;53.016;18.632;2022-09-13T02:44:44;100442.16;;;8.75;100.00
36380;BME280;22411;53.016;18.632;2022-09-13T03:00:47;100426.88;;;8.58;100.00
36380;BME280;22411;53.016;18.632;2022-09-13T03:03:14;100420.97;;;8.56;100.00
36380;BME280;22411;53.016;18.632;2022-09-13T03:05:43;100415.59;;;8.59;100.00
36380;BME280;22411;53.016;18.632;2022-09-13T03:08:11;100413.88;;;8.59;100.00
36380;BME280;22411;53.016;18.632;2022-09-13T03:10:53;100411.28;;;8.59;100.00
36380;BME280;22411;53.016;18.632;2022-09-13T03:16:36;100403.44;;;8.61;100.00
36380;BME280;22411;53.016;18.632;2022-09-13T03:19:33;100402.69;;;8.59;100.00
36380;BME280;22411;53.016;18.632;2022-09-13T03:25:11;100395.59;;;8.48;100.00
36380;BME280;22411;53.016;18.632;2022-09-13T03:30:53;100386.16;;;8.33;100.00
36380;BME280;22411;53.016;18.632;2022-09-13T03:36:10;100375.41;;;8.26;100.00
36380;BME280;22411;53.016;18.632;2022-09-13T03:39:15;100372.19;;;8.23;100.00
36380;BME280;22411;53.016;18.632;2022-09-13T03:41:49;100374.94;;;8.20;100.00
36380;BME280;22411;53.016;18.632;2022-09-13T03:44:20;100370.59;;;8.20;100.00
36380;BME280;22411;53.016;18.632;2022-09-13T03:46:50;100363.88;;;8.18;100.00
36380;BME280;22411;53.016;18.632;2022-09-13T03:49:19;100359.94;;;8.12;100.00
36380;BME280;22411;53.016;18.632;2022-09-13T03:51:49;100362.50;;;8.12;100.00
36380;BME280;22411;53.016;18.632;2022-09-13T03:54:30;100355.94;;;8.06;100.00
36380;BME280;22411;53.016;18.632;2022-09-13T03:57:17;100351.81;;;8.04;100.00
36380;BME280;22411;53.016;18.632;2022-09-13T03:59:51;100348.50;;;8.02;100.00
36380;BME280;22411;53.016;18.632;2022-09-13T04:02:18;100346.81;;;8.01;100.00
36380;BME280;22411;53.016;18.632;2022-09-13T04:04:45;100338.16;;;8.02;100.00
36380;BME280;22411;53.016;18.632;2022-09-13T04:07:16;100343.41;;;8.00;100.00
36380;BME280;22411;53.016;18.632;2022-09-13T04:09:42;100337.69;;;7.95;100.00
36380;BME280;22411;53.016;18.632;2022-09-13T04:12:08;100332.72;;;7.92;100.00
36380;BME280;22411;53.016;18.632;2022-09-13T04:14:34;100335.59;;;7.88;100.00
36380;BME280;22411;53.016;18.632;2022-09-13T04:17:00;100334.66;;;7.89;100.00
36380;BME280;22411;53.016;18.632;2022-09-13T04:19:27;100331.16;;;7.90;100.00
36380;BME280;22411;53.016;18.632;2022-09-13T04:21:54;100329.38;;;7.90;100.00
36380;BME280;22411;53.016;18.632;2022-09-13T04:24:26;100326.75;;;7.92;100.00
36380;BME280;22411;53.016;18.632;2022-09-13T04:26:52;100327.38;;;7.95;100.00
36380;BME280;22411;53.016;18.632;2022-09-13T04:29:23;100335.94;;;7.96;100.00
36380;BME280;22411;53.016;18.632;2022-09-13T04:31:51;100337.50;;;7.98;100.00
36380;BME280;22411;53.016;18.632;2022-09-13T04:34:17;100341.59;;;8.02;100.00
36380;BME280;22411;53.016;18.632;2022-09-13T04:36:43;100340.38;;;8.08;100.00
36380;BME280;22411;53.016;18.632;2022-09-13T04:39:10;100338.34;;;8.13;100.00
36380;BME280;22411;53.016;18.632;2022-09-13T04:41:42;100338.06;;;8.18;100.00
36380;BME280;22411;53.016;18.632;2022-09-13T04:44:15;100342.22;;;8.20;100.00
36380;BME280;22411;53.016;18.632;2022-09-13T04:46:41;100339.25;;;8.26;100.00
36380;BME280;22411;53.016;18.632;2022-09-13T04:49:10;100338.25;;;8.29;100.00
36380;BME280;22411;53.016;18.632;2022-09-13T04:51:36;100329.28;;;8.34;100.00
36380;BME280;22411;53.016;18.632;2022-09-13T04:54:02;100333.28;;;8.40;100.00
36380;BME280;22411;53.016;18.632;2022-09-13T04:56:28;100329.75;;;8.41;100.00
36380;BME280;22411;53.016;18.632;2022-09-13T04:58:54;100329.28;;;8.49;100.00
36380;BME280;22411;53.016;18.632;2022-09-13T05:01:21;100320.34;;;8.54;100.00
36380;BME280;22411;53.016;18.632;2022-09-13T05:03:49;100317.44;;;8.59;100.00
36380;BME280;22411;53.016;18.632;2022-09-13T05:06:16;100318.91;;;8.63;100.00
36380;BME280;22411;53.016;18.632;2022-09-13T05:08:43;100321.09;;;8.69;100.00
36380;BME280;22411;53.016;18.632;2022-09-13T05:11:09;100318.66;;;8.80;100.00
36380;BME280;22411;53.016;18.632;2022-09-13T05:13:35;100318.28;;;8.86;100.00
36380;BME280;22411;53.016;18.632;2022-09-13T05:16:05;100311.91;;;8.92;100.00
36380;BME280;22411;53.016;18.632;2022-09-13T05:18:33;100313.97;;;9.00;100.00
36380;BME280;22411;53.016;18.632;2022-09-13T05:21:01;100314.63;;;9.03;100.00
36380;BME280;22411;53.016;18.632;2022-09-13T05:23:28;100312.25;;;9.13;100.00
36380;BME280;22411;53.016;18.632;2022-09-13T05:26:02;100312.69;;;9.20;100.00
36380;BME280;22411;53.016;18.632;2022-09-13T05:28:31;100310.63;;;9.25;100.00
36380;BME280;22411;53.016;18.632;2022-09-13T05:31:01;100309.16;;;9.21;100.00
36380;BME280;22411;53.016;18.632;2022-09-13T05:33:32;100310.72;;;9.23;100.00
36380;BME280;22411;53.016;18.632;2022-09-13T05:35:59;100312.38;;;9.24;100.00
36380;BME280;22411;53.016;18.632;2022-09-13T05:38:25;100307.53;;;9.32;100.00
36380;BME280;22411;53.016;18.632;2022-09-13T05:41:00;100306.19;;;9.39;100.00
36380;BME280;22411;53.016;18.632;2022-09-13T05:43:29;100310.56;;;9.52;100.00
36380;BME280;22411;53.016;18.632;2022-09-13T05:48:28;100310.44;;;9.79;100.00
36380;BME280;22411;53.016;18.632;2022-09-13T05:50:54;100310.44;;;9.91;100.00
36380;BME280;22411;53.016;18.632;2022-09-13T05:53:20;100297.66;;;10.01;100.00
36380;BME280;22411;53.016;18.632;2022-09-13T05:55:46;100297.88;;;10.11;100.00
36380;BME280;22411;53.016;18.632;2022-09-13T05:58:12;100302.28;;;10.21;100.00
36380;BME280;22411;53.016;18.632;2022-09-13T06:00:38;100299.41;;;10.39;100.00
36380;BME280;22411;53.016;18.632;2022-09-13T06:03:04;100293.53;;;10.48;100.00
36380;BME280;22411;53.016;18.632;2022-09-13T06:05:30;100293.59;;;10.59;100.00
36380;BME280;22411;53.016;18.632;2022-09-13T06:07:55;100291.91;;;10.71;100.00
36380;BME280;22411;53.016;18.632;2022-09-13T06:10:21;100294.56;;;10.82;100.00
36380;BME280;22411;53.016;18.632;2022-09-13T06:12:49;100288.47;;;10.94;100.00
36380;BME280;22411;53.016;18.632;2022-09-13T06:15:16;100283.19;;;11.07;100.00
36380;BME280;22411;53.016;18.632;2022-09-13T06:17:42;100278.50;;;11.12;100.00
36380;BME280;22411;53.016;18.632;2022-09-13T06:20:08;100276.53;;;11.27;100.00
36380;BME280;22411;53.016;18.632;2022-09-13T06:22:34;100281.41;;;11.43;100.00
36380;BME280;22411;53.016;18.632;2022-09-13T06:25:01;100272.09;;;11.51;100.00
36380;BME280;22411;53.016;18.632;2022-09-13T06:27:30;100283.31;;;11.63;100.00
36380;BME280;22411;53.016;18.632;2022-09-13T06:29:56;100284.47;;;11.70;100.00
36380;BME280;22411;53.016;18.632;2022-09-13T06:32:22;100287.34;;;11.78;100.00
36380;BME280;22411;53.016;18.632;2022-09-13T06:34:48;100285.94;;;11.86;100.00
36380;BME280;22411;53.016;18.632;2022-09-13T06:37:13;100289.25;;;11.99;100.00
36380;BME280;22411;53.016;18.632;2022-09-13T06:39:39;100287.94;;;12.16;100.00
36380;BME280;22411;53.016;18.632;2022-09-13T06:42:05;100287.44;;;12.33;100.00
36380;BME280;22411;53.016;18.632;2022-09-13T06:44:32;100280.91;;;12.50;100.00
36380;BME280;22411;53.016;18.632;2022-09-13T06:46:58;100282.25;;;12.65;100.00
36380;BME280;22411;53.016;18.632;2022-09-13T06:49:24;100285.31;;;12.81;100.00
36380;BME280;22411;53.016;18.632;2022-09-13T06:51:49;100282.28;;;12.97;100.00
36380;BME280;22411;53.016;18.632;2022-09-13T06:54:15;100288.78;;;13.13;100.00
36380;BME280;22411;53.016;18.632;2022-09-13T06:56:41;100293.03;;;13.25;100.00
36380;BME280;22411;53.016;18.632;2022-09-13T06:59:09;100291.75;;;13.40;100.00
36380;BME280;22411;53.016;18.632;2022-09-13T07:01:42;100289.78;;;13.53;100.00
36380;BME280;22411;53.016;18.632;2022-09-13T07:04:10;100293.00;;;13.67;100.00
36380;BME280;22411;53.016;18.632;2022-09-13T07:06:39;100290.44;;;13.76;100.00
36380;BME280;22411;53.016;18.632;2022-09-13T07:09:10;100284.81;;;13.81;100.00
36380;BME280;22411;53.016;18.632;2022-09-13T07:11:38;100279.13;;;13.87;100.00
36380;BME280;22411;53.016;18.632;2022-09-13T07:14:05;100287.50;;;14.00;100.00
36380;BME280;22411;53.016;18.632;2022-09-13T07:16:33;100277.56;;;14.15;100.00
36380;BME280;22411;53.016;18.632;2022-09-13T07:19:02;100276.75;;;14.24;100.00
36380;BME280;22411;53.016;18.632;2022-09-13T07:21:31;100275.81;;;14.35;100.00
36380;BME280;22411;53.016;18.632;2022-09-13T07:23:58;100272.16;;;14.47;100.00
36380;BME280;22411;53.016;18.632;2022-09-13T07:26:25;100278.47;;;14.64;100.00
36380;BME280;22411;53.016;18.632;2022-09-13T07:28:57;100272.31;;;14.75;100.00
36380;BME280;22411;53.016;18.632;2022-09-13T07:31:26;100274.78;;;14.86;100.00
36380;BME280;22411;53.016;18.632;2022-09-13T07:33:57;100263.50;;;15.05;100.00
36380;BME280;22411;53.016;18.632;2022-09-13T07:36:25;100257.72;;;15.21;100.00
36380;BME280;22411;53.016;18.632;2022-09-13T07:38:51;100255.50;;;15.35;100.00
36380;BME280;22411;53.016;18.632;2022-09-13T07:41:20;100262.44;;;15.44;100.00
36380;BME280;22411;53.016;18.632;2022-09-13T07:43:47;100262.97;;;15.58;100.00
36380;BME280;22411;53.016;18.632;2022-09-13T07:48:41;100257.31;;;15.72;100.00
36380;BME280;22411;53.016;18.632;2022-09-13T07:51:11;100245.31;;;15.79;100.00
36380;BME280;22411;53.016;18.632;2022-09-13T07:53:38;100241.97;;;15.87;100.00
36380;BME280;22411;53.016;18.632;2022-09-13T07:56:07;100246.47;;;15.94;100.00
36380;BME280;22411;53.016;18.632;2022-09-13T07:58:35;100243.81;;;16.04;100.00
36380;BME280;22411;53.016;18.632;2022-09-13T08:01:07;100243.00;;;16.21;100.00
36380;BME280;22411;53.016;18.632;2022-09-13T08:03:34;100244.88;;;16.29;100.00
36380;BME280;22411;53.016;18.632;2022-09-13T08:06:02;100243.50;;;16.35;100.00
36380;BME280;22411;53.016;18.632;2022-09-13T08:08:29;100241.97;;;16.50;100.00
36380;BME280;22411;53.016;18.632;2022-09-13T08:10:56;100243.63;;;16.69;100.00
36380;BME280;22411;53.016;18.632;2022-09-13T08:13:22;100239.91;;;16.89;100.00
36380;BME280;22411;53.016;18.632;2022-09-13T08:15:48;100246.34;;;16.95;100.00
36380;BME280;22411;53.016;18.632;2022-09-13T08:18:18;100245.25;;;17.06;100.00
36380;BME280;22411;53.016;18.632;2022-09-13T08:20:44;100242.00;;;17.04;100.00
36380;BME280;22411;53.016;18.632;2022-09-13T08:23:11;100244.00;;;17.10;100.00
36380;BME280;22411;53.016;18.632;2022-09-13T08:25:38;100239.94;;;17.15;100.00
36380;BME280;22411;53.016;18.632;2022-09-13T08:28:11;100238.50;;;17.21;100.00
36380;BME280;22411;53.016;18.632;2022-09-13T08:30:39;100240.50;;;17.27;100.00
36380;BME280;22411;53.016;18.632;2022-09-13T08:33:09;100232.25;;;17.48;100.00
36380;BME280;22411;53.016;18.632;2022-09-13T08:35:36;100236.03;;;17.80;100.00
36380;BME280;22411;53.016;18.632;2022-09-13T08:38:03;100229.78;;;18.15;100.00
36380;BME280;22411;53.016;18.632;2022-09-13T08:40:32;100225.72;;;18.37;100.00
36380;BME280;22411;53.016;18.632;2022-09-13T08:46:01;100227.22;;;18.96;100.00
36380;BME280;22411;53.016;18.632;2022-09-13T08:48:38;100221.72;;;19.39;100.00
36380;BME280;22411;53.016;18.632;2022-09-13T08:51:08;100211.31;;;19.70;100.00
36380;BME280;22411;53.016;18.632;2022-09-13T08:53:46;100215.06;;;19.75;100.00
36380;BME280;22411;53.016;18.632;2022-09-13T09:01:53;100216.38;;;19.71;100.00
36380;BME280;22411;53.016;18.632;2022-09-13T09:07:04;100209.81;;;19.20;100.00
36380;BME280;22411;53.016;18.632;2022-09-13T09:09:34;100225.75;;;18.86;100.00
36380;BME280;22411;53.016;18.632;2022-09-13T09:12:31;100215.09;;;18.79;100.00
36380;BME280;22411;53.016;18.632;2022-09-13T09:18:20;100202.44;;;18.66;100.00
36380;BME280;22411;53.016;18.632;2022-09-13T09:20:54;100196.91;;;18.77;100.00
36380;BME280;22411;53.016;18.632;2022-09-13T09:23:27;100188.81;;;18.87;100.00
36380;BME280;22411;53.016;18.632;2022-09-13T09:26:07;100190.78;;;19.10;100.00
36380;BME280;22411;53.016;18.632;2022-09-13T09:28:38;100190.44;;;19.21;100.00
36380;BME280;22411;53.016;18.632;2022-09-13T09:31:15;100181.81;;;19.43;100.00
36380;BME280;22411;53.016;18.632;2022-09-13T09:36:27;100177.25;;;20.07;100.00
36380;BME280;22411;53.016;18.632;2022-09-13T09:38:56;100167.81;;;19.90;100.00
36380;BME280;22411;53.016;18.632;2022-09-13T09:41:48;100156.34;;;19.44;100.00
36380;BME280;22411;53.016;18.632;2022-09-13T09:47:27;100156.31;;;18.96;100.00
36380;BME280;22411;53.016;18.632;2022-09-13T09:50:16;100142.09;;;18.83;100.00
36380;BME280;22411;53.016;18.632;2022-09-13T09:52:55;100133.88;;;18.86;100.00
36380;BME280;22411;53.016;18.632;2022-09-13T09:55:44;100137.44;;;18.93;100.00
36380;BME280;22411;53.016;18.632;2022-09-13T09:58:11;100130.75;;;18.98;100.00
36380;BME280;22411;53.016;18.632;2022-09-13T10:00:55;100120.56;;;18.87;100.00
36380;BME280;22411;53.016;18.632;2022-09-13T10:03:28;100120.56;;;18.95;100.00
36380;BME280;22411;53.016;18.632;2022-09-13T10:06:05;100117.44;;;19.00;100.00
36380;BME280;22411;53.016;18.632;2022-09-13T10:08:35;100120.88;;;18.92;100.00
36380;BME280;22411;53.016;18.632;2022-09-13T10:11:03;100115.84;;;18.83;100.00
36380;BME280;22411;53.016;18.632;2022-09-13T10:13:29;100121.59;;;18.70;100.00
36380;BME280;22411;53.016;18.632;2022-09-13T10:16:25;100121.59;;;18.62;100.00
36380;BME280;22411;53.016;18.632;2022-09-13T10:18:51;100116.19;;;18.47;100.00
36380;BME280;22411;53.016;18.632;2022-09-13T10:23:43;100107.34;;;18.15;100.00
36380;BME280;22411;53.016;18.632;2022-09-13T10:26:21;100098.13;;;18.03;100.00
36380;BME280;22411;53.016;18.632;2022-09-13T10:28:55;100103.38;;;17.95;100.00
36380;BME280;22411;53.016;18.632;2022-09-13T10:31:30;100092.72;;;17.96;100.00
36380;BME280;22411;53.016;18.632;2022-09-13T10:34:00;100088.63;;;17.94;100.00
36380;BME280;22411;53.016;18.632;2022-09-13T10:36:30;100076.19;;;17.88;100.00
36380;BME280;22411;53.016;18.632;2022-09-13T10:39:18;100088.78;;;17.84;100.00
36380;BME280;22411;53.016;18.632;2022-09-13T10:42:03;100079.25;;;17.75;100.00
36380;BME280;22411;53.016;18.632;2022-09-13T10:44:42;100077.47;;;17.75;100.00
36380;BME280;22411;53.016;18.632;2022-09-13T10:47:13;100073.53;;;17.80;100.00
36380;BME280;22411;53.016;18.632;2022-09-13T10:49:46;100064.38;;;17.84;100.00
36380;BME280;22411;53.016;18.632;2022-09-13T10:52:43;100066.50;;;17.88;100.00
36380;BME280;22411;53.016;18.632;2022-09-13T10:57:46;100036.88;;;17.88;100.00
36380;BME280;22411;53.016;18.632;2022-09-13T11:00:16;100033.59;;;17.94;100.00
36380;BME280;22411;53.016;18.632;2022-09-13T11:03:10;100032.91;;;18.08;100.00
36380;BME280;22411;53.016;18.632;2022-09-13T11:06:11;100038.66;;;18.20;100.00
36380;BME280;22411;53.016;18.632;2022-09-13T11:11:33;100044.16;;;18.74;100.00
36380;BME280;22411;53.016;18.632;2022-09-13T11:19:40;100052.00;;;19.83;100.00
36380;BME280;22411;53.016;18.632;2022-09-13T11:22:18;100060.97;;;20.12;100.00
36380;BME280;22411;53.016;18.632;2022-09-13T11:25:00;100047.41;;;20.38;100.00
36380;BME280;22411;53.016;18.632;2022-09-13T11:30:17;100048.75;;;21.52;100.00
36380;BME280;22411;53.016;18.632;2022-09-13T11:38:35;100045.19;;;20.50;100.00
36380;BME280;22411;53.016;18.632;2022-09-13T11:56:46;100001.56;;;19.57;100.00
36380;BME280;22411;53.016;18.632;2022-09-13T12:02:01;99998.28;;;19.55;100.00
36380;BME280;22411;53.016;18.632;2022-09-13T12:04:45;99996.13;;;19.58;100.00
36380;BME280;22411;53.016;18.632;2022-09-13T12:07:23;99994.28;;;19.67;100.00
36380;BME280;22411;53.016;18.632;2022-09-13T12:09:59;99994.41;;;19.74;100.00
36380;BME280;22411;53.016;18.632;2022-09-13T12:12:33;99982.63;;;19.84;100.00
36380;BME280;22411;53.016;18.632;2022-09-13T12:15:04;99984.84;;;19.96;100.00
36380;BME280;22411;53.016;18.632;2022-09-13T12:17:42;99981.97;;;19.82;100.00
36380;BME280;22411;53.016;18.632;2022-09-13T12:20:26;99983.78;;;19.67;100.00
36380;BME280;22411;53.016;18.632;2022-09-13T12:22:57;99981.19;;;19.59;100.00
36380;BME280;22411;53.016;18.632;2022-09-13T12:25:31;99977.88;;;19.34;100.00
36380;BME280;22411;53.016;18.632;2022-09-13T12:28:15;99985.69;;;19.19;100.00
36380;BME280;22411;53.016;18.632;2022-09-13T12:31:04;99979.19;;;19.07;100.00
36380;BME280;22411;53.016;18.632;2022-09-13T12:33:32;99971.81;;;19.02;100.00
36380;BME280;22411;53.016;18.632;2022-09-13T12:36:10;99967.09;;;18.98;100.00
36380;BME280;22411;53.016;18.632;2022-09-13T12:49:24;99953.81;;;18.99;100.00
36380;BME280;22411;53.016;18.632;2022-09-13T13:00:27;99935.53;;;19.06;100.00
36380;BME280;22411;53.016;18.632;2022-09-13T13:05:37;99935.09;;;19.25;100.00
36380;BME280;22411;53.016;18.632;2022-09-13T13:11:07;99926.97;;;19.12;100.00
36380;BME280;22411;53.016;18.632;2022-09-13T13:13:44;99934.50;;;19.15;100.00
36380;BME280;22411;53.016;18.632;2022-09-13T13:18:58;99911.09;;;19.05;100.00
36380;BME280;22411;53.016;18.632;2022-09-13T13:21:29;99911.09;;;19.05;100.00
36380;BME280;22411;53.016;18.632;2022-09-13T13:26:56;99901.00;;;18.94;100.00
36380;BME280;22411;53.016;18.632;2022-09-13T13:29:27;99907.56;;;18.90;100.00
36380;BME280;22411;53.016;18.632;2022-09-13T13:37:18;99902.72;;;19.02;100.00
36380;BME280;22411;53.016;18.632;2022-09-13T13:40:10;99894.03;;;19.01;100.00
36380;BME280;22411;53.016;18.632;2022-09-13T13:42:37;99889.69;;;18.94;100.00
36380;BME280;22411;53.016;18.632;2022-09-13T13:45:27;99886.88;;;18.95;100.00
36380;BME280;22411;53.016;18.632;2022-09-13T13:48:13;99880.09;;;19.01;100.00
36380;BME280;22411;53.016;18.632;2022-09-13T13:56:43;99875.84;;;19.00;100.00
36380;BME280;22411;53.016;18.632;2022-09-13T13:59:29;99869.59;;;19.01;100.00
36380;BME280;22411;53.016;18.632;2022-09-13T14:01:58;99872.22;;;19.01;100.00
36380;BME280;22411;53.016;18.632;2022-09-13T14:07:55;99860.28;;;18.98;100.00
36380;BME280;22411;53.016;18.632;2022-09-13T14:21:40;99840.81;;;18.85;100.00
36380;BME280;22411;53.016;18.632;2022-09-13T14:24:20;99835.25;;;18.88;100.00
36380;BME280;22411;53.016;18.632;2022-09-13T14:26:50;99821.16;;;18.80;100.00
36380;BME280;22411;53.016;18.632;2022-09-13T14:29:21;99820.53;;;18.78;100.00
36380;BME280;22411;53.016;18.632;2022-09-13T14:31:51;99802.50;;;18.75;100.00
36380;BME280;22411;53.016;18.632;2022-09-13T14:37:00;99795.56;;;18.83;100.00
36380;BME280;22411;53.016;18.632;2022-09-13T14:39:27;99800.81;;;18.83;100.00
36380;BME280;22411;53.016;18.632;2022-09-13T14:41:58;99799.53;;;18.78;100.00
36380;BME280;22411;53.016;18.632;2022-09-13T14:44:26;99798.06;;;18.76;100.00
36380;BME280;22411;53.016;18.632;2022-09-13T14:49:56;99796.47;;;18.67;100.00
36380;BME280;22411;53.016;18.632;2022-09-13T14:52:30;99791.38;;;18.65;100.00
36380;BME280;22411;53.016;18.632;2022-09-13T14:55:02;99795.16;;;18.63;100.00
36380;BME280;22411;53.016;18.632;2022-09-13T14:57:36;99793.69;;;18.60;100.00
36380;BME280;22411;53.016;18.632;2022-09-13T15:00:15;99791.22;;;18.67;100.00
36380;BME280;22411;53.016;18.632;2022-09-13T15:02:51;99779.56;;;18.61;100.00
36380;BME280;22411;53.016;18.632;2022-09-13T15:05:20;99779.75;;;18.60;100.00
36380;BME280;22411;53.016;18.632;2022-09-13T15:07:47;99778.94;;;18.59;100.00
36380;BME280;22411;53.016;18.632;2022-09-13T15:21:14;99770.59;;;18.33;100.00
36380;BME280;22411;53.016;18.632;2022-09-13T15:23:48;99765.50;;;18.31;100.00
36380;BME280;22411;53.016;18.632;2022-09-13T15:26:24;99772.72;;;18.29;100.00
36380;BME280;22411;53.016;18.632;2022-09-13T15:28:51;99771.09;;;18.28;100.00
36380;BME280;22411;53.016;18.632;2022-09-13T15:31:33;99781.13;;;18.24;100.00
36380;BME280;22411;53.016;18.632;2022-09-13T15:36:46;99776.53;;;18.18;100.00
36380;BME280;22411;53.016;18.632;2022-09-13T15:39:18;99776.91;;;18.15;100.00
36380;BME280;22411;53.016;18.632;2022-09-13T15:41:58;99771.97;;;18.20;100.00
36380;BME280;22411;53.016;18.632;2022-09-13T15:44:28;99774.44;;;18.14;100.00
36380;BME280;22411;53.016;18.632;2022-09-13T15:46:56;99771.19;;;18.12;100.00
36380;BME280;22411;53.016;18.632;2022-09-13T15:49:26;99776.41;;;18.12;100.00
36380;BME280;22411;53.016;18.632;2022-09-13T15:51:55;99785.47;;;18.09;100.00
36380;BME280;22411;53.016;18.632;2022-09-13T15:54:25;99792.84;;;18.06;100.00
36380;BME280;22411;53.016;18.632;2022-09-13T15:56:52;99787.13;;;18.02;100.00
36380;BME280;22411;53.016;18.632;2022-09-13T15:59:20;99791.91;;;17.98;100.00
36380;BME280;22411;53.016;18.632;2022-09-13T16:01:48;99785.53;;;17.93;100.00
36380;BME280;22411;53.016;18.632;2022-09-13T16:04:15;99782.09;;;17.84;100.00
36380;BME280;22411;53.016;18.632;2022-09-13T16:06:42;99765.59;;;17.75;100.00
36380;BME280;22411;53.016;18.632;2022-09-13T16:09:20;99769.03;;;17.68;100.00